createdAt,value
2022-09-28T00:01:18.476Z,-63
2022-09-28T00:03:49.437Z,-62
2022-09-28T00:06:23.424Z,-63
2022-09-28T00:08:52.105Z,-62
2022-09-28T00:11:23.616Z,-62
2022-09-28T00:13:56.541Z,-63
2022-09-28T00:16:27.853Z,-64
2022-09-28T00:18:56.635Z,-62
2022-09-28T00:21:29.273Z,-63
2022-09-28T00:24:15.979Z,-63
2022-09-28T00:26:48.318Z,-62
2022-09-28T00:29:24.154Z,-61
2022-09-28T00:31:59.703Z,-62
2022-09-28T00:34:28.457Z,-63
2022-09-28T00:36:57.787Z,-63
2022-09-28T00:39:26.999Z,-62
2022-09-28T00:41:56.002Z,-62
2022-09-28T00:44:49.679Z,-63
2022-09-28T00:47:28.217Z,-63
2022-09-28T00:50:03.560Z,-63
2022-09-28T00:52:40.610Z,-63
2022-09-28T00:55:14.591Z,-62
2022-09-28T00:57:49.376Z,-62
2022-09-28T01:00:17.741Z,-62
2022-09-28T01:02:47.739Z,-64
2022-09-28T01:05:17.917Z,-62
2022-09-28T01:07:48.813Z,-64
2022-09-28T01:10:17.193Z,-62
2022-09-28T01:12:45.293Z,-62
2022-09-28T01:15:14.670Z,-63
2022-09-28T01:18:12.761Z,-63
2022-09-28T01:21:01.101Z,-66
2022-09-28T01:23:54.939Z,-63
2022-09-28T01:26:50.747Z,-62
2022-09-28T01:29:37.066Z,-62
2022-09-28T01:32:17.506Z,-62
2022-09-28T01:34:55.454Z,-63
2022-09-28T01:37:32.068Z,-62
2022-09-28T01:40:03.719Z,-62
2022-09-28T01:42:38.725Z,-62
2022-09-28T01:45:15.328Z,-63
2022-09-28T01:47:47.767Z,-61
2022-09-28T01:50:23.255Z,-62
2022-09-28T01:52:58.597Z,-63
2022-09-28T01:55:32.463Z,-63
2022-09-28T01:58:09.805Z,-61
2022-09-28T02:00:44.389Z,-62
2022-09-28T02:03:18.276Z,-63
2022-09-28T02:05:55.630Z,-62
2022-09-28T02:08:32.722Z,-62
2022-09-28T02:11:10.287Z,-62
2022-09-28T02:13:45.376Z,-61
2022-09-28T02:16:21.196Z,-62
2022-09-28T02:18:49.532Z,-61
2022-09-28T02:21:24.870Z,-63
2022-09-28T02:24:01.052Z,-62
2022-09-28T02:26:35.912Z,-60
2022-09-28T02:29:05.475Z,-63
2022-09-28T02:31:33.653Z,-62
2022-09-28T02:34:01.832Z,-63
2022-09-28T02:36:30.761Z,-61
2022-09-28T02:39:01.144Z,-61
2022-09-28T02:41:47.307Z,-62
2022-09-28T02:44:35.852Z,-63
2022-09-28T02:47:16.729Z,-62
2022-09-28T02:49:58.040Z,-62
2022-09-28T02:52:58.233Z,-61
2022-09-28T02:55:44.546Z,-62
2022-09-28T02:58:26.188Z,-62
2022-09-28T03:01:06.582Z,-62
2022-09-28T03:03:49.446Z,-62
2022-09-28T03:06:27.614Z,-63
2022-09-28T03:09:06.772Z,-63
2022-09-28T03:11:41.683Z,-62
2022-09-28T03:14:10.974Z,-63
2022-09-28T03:16:44.750Z,-63
2022-09-28T03:19:13.924Z,-62
2022-09-28T03:21:42.168Z,-63
2022-09-28T03:24:11.088Z,-62
2022-09-28T03:26:40.265Z,-63
2022-09-28T03:29:08.576Z,-63
2022-09-28T03:31:36.652Z,-61
2022-09-28T03:34:06.199Z,-62
2022-09-28T03:36:34.293Z,-63
2022-09-28T03:39:02.366Z,-62
2022-09-28T03:41:30.379Z,-61
2022-09-28T03:43:58.389Z,-62
2022-09-28T03:46:26.379Z,-62
2022-09-28T03:48:58.165Z,-61
2022-09-28T03:51:27.582Z,-62
2022-09-28T03:53:55.514Z,-62
2022-09-28T03:56:23.557Z,-63
2022-09-28T03:58:51.553Z,-62
2022-09-28T04:01:19.663Z,-62
2022-09-28T04:03:48.731Z,-62
2022-09-28T04:06:16.973Z,-62
2022-09-28T04:08:46.305Z,-62
2022-09-28T04:11:14.303Z,-62
2022-09-28T04:13:42.715Z,-61
2022-09-28T04:16:12.020Z,-61
2022-09-28T04:18:40.264Z,-62
2022-09-28T04:21:15.298Z,-62
2022-09-28T04:23:44.220Z,-64
2022-09-28T04:26:18.080Z,-61
2022-09-28T04:29:10.007Z,-61
2022-09-28T04:31:44.529Z,-62
2022-09-28T04:34:14.711Z,-62
2022-09-28T04:36:42.841Z,-61
2022-09-28T04:39:12.249Z,-62
2022-09-28T04:41:41.738Z,-61
2022-09-28T04:44:10.748Z,-62
2022-09-28T04:46:38.804Z,-61
2022-09-28T04:49:06.847Z,-62
2022-09-28T04:51:34.864Z,-62
2022-09-28T04:54:02.893Z,-61
2022-09-28T04:56:30.886Z,-62
2022-09-28T04:59:00.224Z,-61
2022-09-28T05:01:29.976Z,-61
2022-09-28T05:03:57.999Z,-62
2022-09-28T05:06:28.021Z,-63
2022-09-28T05:08:57.299Z,-61
2022-09-28T05:11:25.273Z,-61
2022-09-28T05:13:53.231Z,-62
2022-09-28T05:16:22.685Z,-62
2022-09-28T05:18:50.721Z,-62
2022-09-28T05:21:20.081Z,-61
2022-09-28T05:23:48.741Z,-61
2022-09-28T05:26:16.822Z,-62
2022-09-28T05:28:45.089Z,-61
2022-09-28T05:31:13.104Z,-63
2022-09-28T05:33:42.422Z,-62
2022-09-28T05:36:12.021Z,-61
2022-09-28T05:38:40.111Z,-63
2022-09-28T05:41:08.114Z,-63
2022-09-28T05:43:36.276Z,-63
2022-09-28T05:46:04.496Z,-62
2022-09-28T05:48:32.916Z,-64
2022-09-28T05:51:02.244Z,-62
2022-09-28T05:53:30.377Z,-62
2022-09-28T05:56:00.092Z,-62
2022-09-28T05:58:29.239Z,-62
2022-09-28T06:00:58.499Z,-62
2022-09-28T06:03:27.005Z,-63
2022-09-28T06:05:55.585Z,-62
2022-09-28T06:08:24.986Z,-62
2022-09-28T06:10:52.954Z,-61
2022-09-28T06:13:21.028Z,-62
2022-09-28T06:15:49.014Z,-63
2022-09-28T06:18:17.022Z,-63
2022-09-28T06:20:45.029Z,-62
2022-09-28T06:23:14.448Z,-63
2022-09-28T06:25:43.767Z,-63
2022-09-28T06:28:14.738Z,-65
2022-09-28T06:30:45.057Z,-63
2022-09-28T06:33:16.262Z,-63
2022-09-28T06:35:44.319Z,-62
2022-09-28T06:38:12.862Z,-62
2022-09-28T06:40:40.837Z,-63
2022-09-28T06:43:14.926Z,-62
2022-09-28T06:45:44.280Z,-62
2022-09-28T06:48:13.781Z,-63
2022-09-28T06:50:42.568Z,-62
2022-09-28T06:53:14.604Z,-61
2022-09-28T06:55:46.026Z,-62
2022-09-28T06:58:19.497Z,-63
2022-09-28T07:00:50.702Z,-61
2022-09-28T07:03:21.579Z,-62
2022-09-28T07:05:53.990Z,-63
2022-09-28T07:08:24.767Z,-63
2022-09-28T07:10:56.235Z,-61
2022-09-28T07:16:16.501Z,-61
2022-09-28T07:18:44.603Z,-63
2022-09-28T07:21:24.151Z,-62
2022-09-28T07:23:55.055Z,-61
2022-09-28T07:26:24.607Z,-60
2022-09-28T07:28:55.980Z,-62
2022-09-28T07:31:26.102Z,-61
2022-09-28T07:33:54.306Z,-61
2022-09-28T07:36:22.875Z,-61
2022-09-28T07:38:51.257Z,-61
2022-09-28T07:41:22.732Z,-61
2022-09-28T07:43:50.990Z,-61
2022-09-28T07:46:21.816Z,-61
2022-09-28T07:48:51.666Z,-60
2022-09-28T07:51:21.124Z,-62
2022-09-28T07:53:49.088Z,-62
2022-09-28T07:56:20.351Z,-62
2022-09-28T07:58:49.578Z,-65
2022-09-28T08:01:19.226Z,-65
2022-09-28T08:03:48.738Z,-61
2022-09-28T08:06:18.605Z,-63
2022-09-28T08:08:46.671Z,-62
2022-09-28T08:11:17.805Z,-63
2022-09-28T08:13:47.593Z,-62
2022-09-28T08:16:15.710Z,-62
2022-09-28T08:18:43.767Z,-61
2022-09-28T08:21:30.642Z,-63
2022-09-28T08:23:58.739Z,-61
2022-09-28T08:26:26.796Z,-61
2022-09-28T08:28:54.800Z,-62
2022-09-28T08:31:22.872Z,-62
2022-09-28T08:33:53.692Z,-60
2022-09-28T08:36:23.965Z,-62
2022-09-28T08:38:52.031Z,-61
2022-09-28T08:41:36.778Z,-61
2022-09-28T08:44:23.928Z,-63
2022-09-28T08:46:57.872Z,-63
2022-09-28T08:49:33.208Z,-64
2022-09-28T08:52:08.815Z,-64
2022-09-28T08:54:45.496Z,-63
2022-09-28T08:57:19.999Z,-61
2022-09-28T08:59:53.328Z,-62
2022-09-28T09:02:28.582Z,-64
2022-09-28T09:04:58.812Z,-62
2022-09-28T09:08:00.739Z,-63
2022-09-28T09:10:51.985Z,-62
2022-09-28T09:14:06.794Z,-64
2022-09-28T09:16:59.961Z,-61
2022-09-28T09:19:45.070Z,-63
2022-09-28T09:22:22.806Z,-61
2022-09-28T09:25:01.592Z,-60
2022-09-28T09:27:49.495Z,-62
2022-09-28T09:30:22.046Z,-59
2022-09-28T09:33:14.185Z,-60
2022-09-28T09:36:06.500Z,-60
2022-09-28T09:38:53.754Z,-60
2022-09-28T09:41:41.488Z,-61
2022-09-28T09:44:52.358Z,-60
2022-09-28T09:47:25.459Z,-60
2022-09-28T09:50:05.349Z,-61
2022-09-28T09:52:51.986Z,-61
2022-09-28T09:55:29.845Z,-62
2022-09-28T09:58:10.492Z,-60
2022-09-28T10:00:43.804Z,-60
2022-09-28T10:03:24.438Z,-61
2022-09-28T10:06:01.299Z,-60
2022-09-28T10:08:34.951Z,-62
2022-09-28T10:11:12.721Z,-62
2022-09-28T10:13:42.828Z,-61
2022-09-28T10:16:10.962Z,-61
2022-09-28T10:18:39.905Z,-62
2022-09-28T10:21:08.047Z,-60
2022-09-28T10:23:39.786Z,-63
2022-09-28T10:26:15.573Z,-61
2022-09-28T10:28:53.097Z,-61
2022-09-28T10:31:43.084Z,-60
2022-09-28T10:34:15.291Z,-60
2022-09-28T10:36:55.158Z,-61
2022-09-28T10:39:33.654Z,-61
2022-09-28T10:42:07.072Z,-60
2022-09-28T10:44:51.554Z,-60
2022-09-28T10:47:23.236Z,-60
2022-09-28T10:49:54.935Z,-60
2022-09-28T10:52:41.466Z,-60
2022-09-28T10:55:36.861Z,-62
2022-09-28T10:58:28.182Z,-61
2022-09-28T11:01:09.078Z,-61
2022-09-28T11:03:51.585Z,-60
2022-09-28T11:06:28.086Z,-61
2022-09-28T11:09:01.400Z,-60
2022-09-28T11:11:31.323Z,-61
2022-09-28T11:14:03.401Z,-60
2022-09-28T11:16:36.092Z,-60
2022-09-28T11:19:25.373Z,-62
2022-09-28T11:21:53.510Z,-62
2022-09-28T11:24:25.468Z,-63
2022-09-28T11:26:57.427Z,-64
2022-09-28T11:29:36.061Z,-63
2022-09-28T11:32:07.606Z,-62
2022-09-28T11:34:58.528Z,-63
2022-09-28T11:38:04.388Z,-60
2022-09-28T11:40:52.297Z,-61
2022-09-28T11:43:41.065Z,-62
2022-09-28T11:46:22.420Z,-60
2022-09-28T11:48:59.295Z,-61
2022-09-28T11:51:32.874Z,-60
2022-09-28T11:54:14.237Z,-60
2022-09-28T11:56:48.677Z,-61
2022-09-28T11:59:25.920Z,-60
2022-09-28T12:01:58.304Z,-62
2022-09-28T12:04:36.894Z,-61
2022-09-28T12:07:13.269Z,-61
2022-09-28T12:09:51.060Z,-62
2022-09-28T12:12:28.165Z,-61
2022-09-28T12:15:02.672Z,-60
2022-09-28T12:17:41.094Z,-61
2022-09-28T12:20:22.177Z,-61
2022-09-28T12:23:06.771Z,-61
2022-09-28T12:25:52.968Z,-61
2022-09-28T12:28:36.001Z,-63
2022-09-28T12:31:18.138Z,-61
2022-09-28T12:33:51.832Z,-62
2022-09-28T12:36:42.237Z,-62
2022-09-28T12:39:56.470Z,-61
2022-09-28T12:42:47.144Z,-60
2022-09-28T12:46:06.680Z,-62
2022-09-28T12:49:36.716Z,-60
2022-09-28T12:51:52.379Z,-63
2022-09-28T12:54:53.315Z,-61
2022-09-28T12:57:42.007Z,-61
2022-09-28T13:00:15.833Z,-62
2022-09-28T13:03:28.970Z,-62
2022-09-28T13:06:26.790Z,-62
2022-09-28T13:09:21.653Z,-60
2022-09-28T13:12:11.473Z,-61
2022-09-28T13:15:15.424Z,-61
2022-09-28T13:18:00.321Z,-60
2022-09-28T13:20:45.655Z,-63
2022-09-28T13:23:22.071Z,-62
2022-09-28T13:25:58.749Z,-61
2022-09-28T13:28:29.994Z,-61
2022-09-28T13:31:00.496Z,-61
2022-09-28T13:33:35.686Z,-62
2022-09-28T13:36:05.649Z,-61
2022-09-28T13:38:56.432Z,-63
2022-09-28T13:41:31.737Z,-61
2022-09-28T13:44:54.357Z,-62
2022-09-28T13:47:46.484Z,-63
2022-09-28T13:50:34.310Z,-63
2022-09-28T13:53:17.208Z,-62
2022-09-28T13:56:01.576Z,-61
2022-09-28T13:58:39.379Z,-62
2022-09-28T14:01:14.171Z,-62
2022-09-28T14:03:57.235Z,-62
2022-09-28T14:06:29.279Z,-63
2022-09-28T14:10:11.324Z,-64
2022-09-28T14:12:49.190Z,-62
2022-09-28T14:16:15.156Z,-63
2022-09-28T14:18:45.445Z,-63
2022-09-28T14:21:59.584Z,-64
2022-09-28T14:24:57.704Z,-63
2022-09-28T14:28:07.057Z,-63
2022-09-28T14:30:50.293Z,-64
2022-09-28T14:33:27.497Z,-63
2022-09-28T14:36:02.130Z,-63
2022-09-28T14:38:53.065Z,-62
2022-09-28T14:41:33.709Z,-62
2022-09-28T14:44:07.999Z,-62
2022-09-28T14:46:45.530Z,-62
2022-09-28T14:50:01.757Z,-62
2022-09-28T14:52:51.567Z,-62
2022-09-28T14:55:28.504Z,-62
2022-09-28T14:57:59.640Z,-63
2022-09-28T15:00:31.895Z,-62
2022-09-28T15:03:11.426Z,-63
2022-09-28T15:05:47.063Z,-61
2022-09-28T15:08:15.816Z,-62
2022-09-28T15:10:48.670Z,-62
2022-09-28T15:13:25.607Z,-62
2022-09-28T15:16:00.489Z,-62
2022-09-28T15:19:15.838Z,-63
2022-09-28T15:21:47.649Z,-63
2022-09-28T15:24:27.109Z,-63
2022-09-28T15:26:56.598Z,-63
2022-09-28T15:29:28.096Z,-64
2022-09-28T15:31:56.058Z,-64
2022-09-28T15:34:56.825Z,-64
2022-09-28T15:37:33.122Z,-65
2022-09-28T15:40:02.753Z,-65
2022-09-28T15:42:37.592Z,-64
2022-09-28T15:45:24.812Z,-65
2022-09-28T15:47:57.567Z,-64
2022-09-28T15:50:29.883Z,-63
2022-09-28T15:53:04.214Z,-64
2022-09-28T15:55:35.521Z,-65
2022-09-28T15:58:17.696Z,-65
2022-09-28T16:00:47.341Z,-64
2022-09-28T16:03:28.904Z,-65
2022-09-28T16:06:08.706Z,-64
2022-09-28T16:08:43.704Z,-64
2022-09-28T16:11:20.664Z,-65
2022-09-28T16:14:01.534Z,-65
2022-09-28T16:16:35.195Z,-65
2022-09-28T16:19:04.150Z,-64
2022-09-28T16:21:46.880Z,-65
2022-09-28T16:24:26.272Z,-66
2022-09-28T16:27:01.469Z,-63
2022-09-28T16:29:40.021Z,-64
2022-09-28T16:32:41.588Z,-64
2022-09-28T16:35:29.786Z,-64
2022-09-28T16:38:11.475Z,-64
2022-09-28T16:40:46.058Z,-65
2022-09-28T16:43:26.672Z,-65
2022-09-28T16:45:56.633Z,-64
2022-09-28T16:48:28.335Z,-65
2022-09-28T16:50:56.435Z,-65
2022-09-28T16:53:42.456Z,-64
2022-09-28T16:56:13.396Z,-65
2022-09-28T16:58:42.397Z,-64
2022-09-28T17:01:13.299Z,-64
2022-09-28T17:03:42.632Z,-65
2022-09-28T17:06:13.163Z,-67
2022-09-28T17:08:43.056Z,-68
2022-09-28T17:11:20.452Z,-64
2022-09-28T17:13:51.823Z,-65
2022-09-28T17:16:43.026Z,-66
2022-09-28T17:19:21.723Z,-65
2022-09-28T17:21:50.988Z,-66
2022-09-28T17:24:19.580Z,-65
2022-09-28T17:26:52.622Z,-65
2022-09-28T17:29:21.041Z,-67
2022-09-28T17:31:49.537Z,-66
2022-09-28T17:34:17.926Z,-66
2022-09-28T17:36:46.456Z,-65
2022-09-28T17:39:17.699Z,-66
2022-09-28T17:41:46.043Z,-67
2022-09-28T17:44:16.256Z,-65
2022-09-28T17:46:48.568Z,-64
2022-09-28T17:49:17.699Z,-64
2022-09-28T17:51:45.901Z,-66
2022-09-28T17:54:16.681Z,-67
2022-09-28T17:56:44.745Z,-65
2022-09-28T17:59:19.020Z,-64
2022-09-28T18:01:48.147Z,-68
2022-09-28T18:04:39.876Z,-64
2022-09-28T18:07:05.370Z,-65
2022-09-28T18:09:33.421Z,-65
2022-09-28T18:12:05.680Z,-64
2022-09-28T18:14:35.737Z,-65
2022-09-28T18:17:03.864Z,-65
2022-09-28T18:19:32.478Z,-64
2022-09-28T18:22:01.343Z,-67
2022-09-28T18:24:29.745Z,-65
2022-09-28T18:26:57.760Z,-64
2022-09-28T18:29:27.338Z,-65
2022-09-28T18:31:59.307Z,-66
2022-09-28T18:34:27.400Z,-66
2022-09-28T18:36:55.472Z,-68
2022-09-28T18:39:24.337Z,-65
2022-09-28T18:41:52.334Z,-65
2022-09-28T18:44:20.388Z,-65
2022-09-28T18:46:48.609Z,-67
2022-09-28T18:49:18.058Z,-66
2022-09-28T18:51:46.099Z,-66
2022-09-28T18:54:14.163Z,-65
2022-09-28T18:56:42.270Z,-66
2022-09-28T18:59:12.555Z,-69
2022-09-28T19:01:41.799Z,-70
2022-09-28T19:04:13.492Z,-70
2022-09-28T19:06:44.686Z,-69
2022-09-28T19:09:13.102Z,-69
2022-09-28T19:11:41.220Z,-70
2022-09-28T19:14:14.931Z,-70
2022-09-28T19:16:44.604Z,-69
2022-09-28T19:19:14.848Z,-70
2022-09-28T19:21:45.288Z,-70
2022-09-28T19:24:15.878Z,-70
2022-09-28T19:26:45.171Z,-72
2022-09-28T19:29:13.863Z,-69
2022-09-28T19:31:43.293Z,-68
2022-09-28T19:34:13.522Z,-70
2022-09-28T19:36:44.081Z,-70
2022-09-28T19:39:15.736Z,-70
2022-09-28T19:41:49.537Z,-71
2022-09-28T19:44:24.932Z,-70
2022-09-28T19:46:55.603Z,-70
2022-09-28T19:49:25.429Z,-70
2022-09-28T19:54:56.417Z,-69
2022-09-28T19:57:26.087Z,-69
2022-09-28T19:59:57.881Z,-71
2022-09-28T20:02:29.238Z,-68
2022-09-28T20:04:57.375Z,-69
2022-09-28T20:07:26.715Z,-68
2022-09-28T20:09:54.711Z,-69
2022-09-28T20:12:23.151Z,-70
2022-09-28T20:14:51.233Z,-70
2022-09-28T20:17:19.740Z,-68
2022-09-28T20:19:47.925Z,-69
2022-09-28T20:22:16.895Z,-69
2022-09-28T20:24:46.255Z,-70
2022-09-28T20:27:14.292Z,-70
2022-09-28T20:29:42.986Z,-70
2022-09-28T20:32:11.543Z,-67
2022-09-28T20:34:39.539Z,-70
2022-09-28T20:37:07.623Z,-70
2022-09-28T20:39:35.667Z,-71
2022-09-28T20:42:05.124Z,-69
2022-09-28T20:44:33.129Z,-70
2022-09-28T20:47:02.019Z,-69
2022-09-28T20:49:30.016Z,-72
2022-09-28T20:51:57.985Z,-69
2022-09-28T20:54:26.584Z,-69
2022-09-28T20:56:54.773Z,-69
2022-09-28T20:59:26.416Z,-69
2022-09-28T21:01:54.738Z,-70
2022-09-28T21:04:22.844Z,-69
2022-09-28T21:06:50.876Z,-70
2022-09-28T21:09:18.936Z,-69
2022-09-28T21:11:48.074Z,-69
2022-09-28T21:14:16.119Z,-70
2022-09-28T21:16:45.611Z,-70
2022-09-28T21:19:13.605Z,-70
2022-09-28T21:21:41.592Z,-70
2022-09-28T21:24:09.945Z,-69
2022-09-28T21:26:38.995Z,-69
2022-09-28T21:29:11.052Z,-70
2022-09-28T21:31:41.802Z,-70
2022-09-28T21:34:14.341Z,-67
2022-09-28T21:36:43.219Z,-68
2022-09-28T21:39:11.737Z,-69
2022-09-28T21:41:40.196Z,-69
2022-09-28T21:44:08.519Z,-70
2022-09-28T21:46:37.609Z,-69
2022-09-28T21:49:08.719Z,-69
2022-09-28T21:51:38.518Z,-68
2022-09-28T21:54:07.027Z,-69
2022-09-28T21:56:35.404Z,-69
2022-09-28T21:59:03.500Z,-69
2022-09-28T22:01:31.677Z,-69
2022-09-28T22:03:59.920Z,-68
2022-09-28T22:06:29.026Z,-70
2022-09-28T22:08:59.176Z,-70
2022-09-28T22:11:29.723Z,-68
2022-09-28T22:14:00.648Z,-69
2022-09-28T22:16:31.607Z,-69
2022-09-28T22:19:00.412Z,-68
2022-09-28T22:21:32.649Z,-67
2022-09-28T22:24:04.645Z,-70
2022-09-28T22:26:35.045Z,-70
2022-09-28T22:29:06.314Z,-72
2022-09-28T22:31:36.913Z,-67
2022-09-28T22:34:05.614Z,-68
2022-09-28T22:36:34.154Z,-69
2022-09-28T22:39:04.117Z,-71
2022-09-28T22:41:32.127Z,-70
2022-09-28T22:44:00.678Z,-70
2022-09-28T22:46:32.129Z,-69
2022-09-28T22:49:01.214Z,-68
2022-09-28T22:51:31.646Z,-71
2022-09-28T22:54:00.235Z,-68
2022-09-28T22:56:30.044Z,-69
2022-09-28T22:58:58.600Z,-72
2022-09-28T23:01:29.194Z,-69
2022-09-28T23:03:59.336Z,-69
2022-09-28T23:06:30.280Z,-68
2022-09-28T23:08:58.450Z,-68
2022-09-28T23:11:26.581Z,-69
2022-09-28T23:13:58.465Z,-68
2022-09-28T23:16:27.950Z,-68
2022-09-28T23:18:57.074Z,-69
2022-09-28T23:21:27.820Z,-68
2022-09-28T23:23:58.794Z,-68
2022-09-28T23:26:29.339Z,-68
2022-09-28T23:29:00.109Z,-69
2022-09-28T23:31:31.429Z,-69
2022-09-28T23:34:01.156Z,-69
2022-09-28T23:36:29.873Z,-64
2022-09-28T23:38:58.745Z,-64
2022-09-28T23:41:26.868Z,-65
2022-09-28T23:43:54.893Z,-65
2022-09-28T23:46:24.460Z,-66
2022-09-28T23:48:52.834Z,-68
2022-09-28T23:51:21.022Z,-64
2022-09-28T23:53:49.040Z,-64
2022-09-28T23:56:17.121Z,-63
2022-09-28T23:58:45.164Z,-64
